Port Hadlock, Washington
Current Conditions -  °F | °C
As of 3:56 AM on Sunday 25 Jan 2015 (Local Time) from KNUW Reporting Station
Haze Haze  
Wind Chill: 54°   Ceiling: 2500
Heat Index: 54°   Visibility: 6mi
Dew Point: 51°   Wind: 3mph
Humidity: 90%   Direction: 100°E
Pressure: 30.21"   Gusts: NA
Location:  48.03°N, 122.76°W
Report Text: KNUW 251156Z 10003KT 6SM BR SCT010 BKN025 BKN031 12/11 A3021 RMK AO2 SLP233 70007 T01220106 10128 20117 51000 VISNO E $
Loading
Personal Weather Stations






























Interactive Weather Map New forecast layout! Learn more

10-Day Weather Forecast

Advertisements
Track Severe Weather on mobile